Countyline, Oklahoma
Current Conditions -  °F | °C
As of 10:15 AM on Monday 26 Jan 2015 (Local Time) from KDUC Reporting Station
Clear Clear  
Wind Chill: 52°   Ceiling: Unl
Heat Index: 52°   Visibility: 10mi
Dew Point: 37°   Wind: 7mph
Humidity: 58%   Direction: 270°W
Pressure: 30.17"   Gusts: NA
Location:  34.45°N, 97.56°W
Report Text: KDUC 261615Z AUTO 27006KT 10SM CLR 11/03 A3017 RMK AO2
Loading
Personal Weather Stations






























Interactive Weather Map New forecast layout! Learn more

10-Day Weather Forecast

Advertisements
Track Severe Weather on mobile